createdAt,value
2018-08-21T20:10:31.694Z,26.39
2018-08-21T20:11:46.106Z,26.36
2018-08-21T20:13:00.210Z,26.26
2018-08-21T20:14:14.577Z,26.24
2018-08-21T20:15:29.306Z,26.23
2018-08-21T20:18:13.497Z,26.06
2018-08-21T20:19:27.525Z,26.18
2018-08-21T20:20:41.876Z,26.08
2018-08-21T20:21:55.477Z,26.1
2018-08-21T20:23:10.790Z,26.07
2018-08-21T20:24:25.042Z,26.01
2018-08-21T20:25:39.163Z,26.07
2018-08-21T20:26:54.473Z,25.98
2018-08-21T20:28:10.780Z,26.03
2018-08-21T20:29:26.616Z,25.98
2018-08-21T20:30:41.806Z,25.85
2018-08-21T20:31:57.005Z,25.91
2018-08-21T20:33:11.890Z,25.89
2018-08-21T20:34:27.212Z,25.91
2018-08-21T20:35:42.282Z,25.98
2018-08-21T20:36:57.621Z,25.85
2018-08-21T20:38:13.768Z,25.73
2018-08-21T20:39:28.613Z,25.73
2018-08-21T20:40:42.764Z,25.83
2018-08-21T20:41:57.108Z,25.8
2018-08-21T20:43:11.591Z,25.8
2018-08-21T20:44:25.605Z,25.76
2018-08-21T20:45:40.281Z,25.78
2018-08-21T20:46:55.001Z,25.77
2018-08-21T20:48:09.712Z,25.73
2018-08-21T20:49:24.434Z,25.61
2018-08-21T20:50:38.251Z,25.8
2018-08-21T20:51:52.458Z,25.76
2018-08-21T20:53:07.060Z,25.68
2018-08-21T20:54:21.470Z,25.58
2018-08-21T20:55:35.554Z,25.62
2018-08-21T20:56:49.654Z,25.63
2018-08-21T20:58:03.694Z,25.7
2018-08-21T20:59:17.785Z,25.61
2018-08-21T21:00:31.679Z,25.66
2018-08-21T21:01:45.880Z,25.61
2018-08-21T21:03:00.559Z,25.62
2018-08-21T21:04:15.379Z,25.63
2018-08-21T21:05:29.912Z,25.68
2018-08-21T21:06:45.047Z,25.63
2018-08-21T21:07:59.721Z,25.59
2018-08-21T21:09:13.241Z,25.63
2018-08-21T21:10:28.169Z,25.61
2018-08-21T21:13:10.779Z,25.55
2018-08-21T21:14:25.396Z,25.46
2018-08-21T21:15:39.481Z,25.43
2018-08-21T21:16:54.005Z,25.46
2018-08-21T21:18:07.780Z,25.44
2018-08-21T21:19:21.969Z,25.44
2018-08-21T21:20:36.496Z,25.46
2018-08-21T21:21:51.149Z,25.36
2018-08-21T21:23:06.291Z,25.36
2018-08-21T21:24:20.601Z,25.3
2018-08-21T21:25:35.180Z,25.3
2018-08-21T21:26:49.656Z,25.25
2018-08-21T21:28:03.731Z,25.25
2018-08-21T21:29:17.563Z,25.25
2018-08-21T21:30:31.688Z,25.3
2018-08-21T21:31:45.938Z,25.26
2018-08-21T21:33:00.728Z,25.31
2018-08-21T21:34:15.644Z,25.25
2018-08-21T21:35:29.830Z,25.29
2018-08-21T21:36:59.252Z,25.33
2018-08-21T21:38:13.724Z,25.3
2018-08-21T21:39:27.447Z,25.22
2018-08-21T21:40:42.145Z,25.22
2018-08-21T21:41:55.768Z,25.24
2018-08-21T21:43:10.151Z,25.21
2018-08-21T21:44:25.051Z,25.18
2018-08-21T21:45:39.735Z,25.16
2018-08-21T21:46:53.960Z,25.12
2018-08-21T21:48:08.006Z,25.04
2018-08-21T21:49:21.916Z,25.07
2018-08-21T21:50:36.183Z,25.03
2018-08-21T21:51:50.777Z,25.01
2018-08-21T21:53:05.093Z,24.99
2018-08-21T21:54:19.977Z,25.01
2018-08-21T21:55:34.403Z,25.01
2018-08-21T21:56:48.213Z,25.01
2018-08-21T21:58:02.504Z,25.01
2018-08-21T21:59:17.055Z,24.92
2018-08-21T22:00:31.301Z,24.96
2018-08-21T22:01:45.357Z,25.04
2018-08-21T22:03:00.048Z,24.93
2018-08-21T22:04:14.739Z,24.93
2018-08-21T22:05:29.490Z,24.93
2018-08-21T22:06:58.645Z,25.06
2018-08-21T22:08:12.976Z,25.01
2018-08-21T22:09:27.517Z,25.01
2018-08-21T22:10:41.633Z,25
2018-08-21T22:11:55.694Z,24.93
2018-08-21T22:13:09.999Z,24.93
2018-08-21T22:14:24.598Z,25.01
2018-08-21T22:15:38.736Z,24.97
2018-08-21T22:16:53.048Z,24.96
2018-08-21T22:18:07.279Z,24.99
2018-08-21T22:19:20.993Z,24.93
2018-08-21T22:20:35.268Z,24.96
2018-08-21T22:21:49.128Z,24.89
2018-08-21T22:23:02.959Z,24.85
2018-08-21T22:24:17.296Z,24.84
2018-08-21T22:25:31.488Z,24.85
2018-08-21T22:26:46.368Z,24.79
2018-08-21T22:28:00.777Z,24.81
2018-08-21T22:29:14.762Z,24.71
2018-08-21T22:30:29.338Z,24.66
2018-08-21T22:31:44.080Z,24.71
2018-08-21T22:32:58.434Z,24.66
2018-08-21T22:34:12.970Z,24.61
2018-08-21T22:35:27.038Z,24.62
2018-08-21T22:36:41.213Z,24.62
2018-08-21T22:37:55.558Z,24.59
2018-08-21T22:39:09.487Z,24.5
2018-08-21T22:40:23.802Z,24.53
2018-08-21T22:41:37.618Z,24.43
2018-08-21T22:42:51.464Z,24.4
2018-08-21T22:44:05.976Z,24.43
2018-08-21T22:45:20.501Z,24.41
2018-08-21T22:46:34.898Z,24.38
2018-08-21T22:47:49.092Z,24.43
2018-08-21T22:49:03.675Z,24.34
2018-08-21T22:50:17.565Z,24.48
2018-08-21T22:51:31.866Z,24.41
2018-08-21T22:52:45.936Z,24.36
2018-08-21T22:54:00.140Z,24.32
2018-08-21T22:55:14.654Z,24.36
2018-08-21T22:56:28.756Z,24.29
2018-08-21T22:57:42.906Z,24.26
2018-08-21T22:58:57.151Z,24.29
2018-08-21T23:00:11.780Z,24.37
2018-08-21T23:01:26.325Z,24.36
2018-08-21T23:02:40.344Z,24.29
2018-08-21T23:03:54.266Z,24.28
2018-08-21T23:05:08.495Z,24.26
2018-08-21T23:06:22.583Z,24.24
2018-08-21T23:07:36.967Z,24.18
2018-08-21T23:08:51.344Z,24.11
2018-08-21T23:10:05.822Z,24.24
2018-08-21T23:11:19.733Z,24.13
2018-08-21T23:12:34.047Z,24.07
2018-08-21T23:13:48.349Z,24.11
2018-08-21T23:15:01.981Z,24.19
2018-08-21T23:16:16.463Z,24.14
2018-08-21T23:17:30.555Z,24.11
2018-08-21T23:18:44.624Z,24.16
2018-08-21T23:19:58.660Z,24.14
2018-08-21T23:21:12.931Z,24.07
2018-08-21T23:22:27.521Z,24.07
2018-08-21T23:23:41.952Z,24.1
2018-08-21T23:24:56.048Z,24.03
2018-08-21T23:26:10.096Z,24.03
2018-08-21T23:27:24.312Z,24.03
2018-08-21T23:28:38.253Z,24.01
2018-08-21T23:29:52.334Z,24.14
2018-08-21T23:31:06.420Z,24.04
2018-08-21T23:32:20.235Z,23.96
2018-08-21T23:33:34.822Z,23.88
2018-08-21T23:34:49.333Z,24.01
2018-08-21T23:36:03.460Z,23.89
2018-08-21T23:37:17.522Z,24.01
2018-08-21T23:38:31.368Z,23.96
2018-08-21T23:39:45.981Z,23.95
2018-08-21T23:41:00.577Z,23.86
2018-08-21T23:42:14.874Z,23.88
2018-08-21T23:43:28.994Z,23.92
2018-08-21T23:44:43.309Z,23.82
2018-08-21T23:45:57.360Z,23.85
2018-08-21T23:47:11.714Z,23.81
2018-08-21T23:48:25.296Z,23.79
2018-08-21T23:49:39.349Z,23.79
2018-08-21T23:50:53.206Z,23.77
2018-08-21T23:52:07.352Z,23.76
2018-08-21T23:53:21.658Z,23.74
2018-08-21T23:54:35.971Z,23.77
2018-08-21T23:55:49.766Z,23.73
2018-08-21T23:57:03.388Z,23.7
2018-08-21T23:58:17.888Z,23.74
2018-08-21T23:59:32.440Z,23.69
